createdAt,value
2023-03-15T00:00:34.663Z,5.10
2023-03-15T00:03:26.743Z,5.00
2023-03-15T00:06:15.683Z,5.00
2023-03-15T00:09:04.174Z,5.10
2023-03-15T00:11:55.041Z,5.00
2023-03-15T00:14:42.538Z,5.00
2023-03-15T00:17:30.018Z,5.00
2023-03-15T00:20:19.918Z,5.00
2023-03-15T00:23:07.381Z,5.00
2023-03-15T00:25:55.258Z,5.10
2023-03-15T00:28:43.446Z,5.10
2023-03-15T00:31:31.290Z,5.10
2023-03-15T00:34:24.132Z,5.10
2023-03-15T00:37:11.787Z,5.10
2023-03-15T00:39:59.419Z,5.10
2023-03-15T00:42:50.369Z,5.10
2023-03-15T00:45:37.916Z,5.10
2023-03-15T00:48:25.394Z,5.10
2023-03-15T00:51:16.664Z,5.20
2023-03-15T00:54:04.205Z,5.20
2023-03-15T00:56:51.612Z,5.20
2023-03-15T00:59:39.148Z,5.20
2023-03-15T01:02:26.690Z,5.30
2023-03-15T01:05:14.494Z,5.30
2023-03-15T01:08:03.303Z,5.40
2023-03-15T01:10:51.405Z,5.50
2023-03-15T01:13:39.809Z,5.60
2023-03-15T01:16:28.673Z,5.70
2023-03-15T01:19:16.447Z,5.70
2023-03-15T01:22:03.862Z,5.80
2023-03-15T01:24:51.418Z,5.80
2023-03-15T01:27:38.977Z,5.80
2023-03-15T01:30:26.502Z,5.70
2023-03-15T01:33:13.973Z,5.60
2023-03-15T01:36:07.710Z,5.60
2023-03-15T01:38:55.362Z,5.50
2023-03-15T01:41:42.842Z,5.40
2023-03-15T01:44:55.938Z,5.30
2023-03-15T01:47:43.373Z,5.30
2023-03-15T01:50:31.171Z,5.30
2023-03-15T01:53:18.702Z,5.20
2023-03-15T01:56:07.632Z,5.20
2023-03-15T01:58:59.160Z,5.10
2023-03-15T02:01:48.555Z,5.10
2023-03-15T02:04:46.592Z,5.00
2023-03-15T02:07:34.739Z,5.00
2023-03-15T02:10:37.302Z,5.00
2023-03-15T02:13:28.847Z,4.90
2023-03-15T02:16:19.052Z,4.90
2023-03-15T02:19:28.564Z,5.00
2023-03-15T02:23:06.182Z,4.90
2023-03-15T02:26:17.877Z,4.90
2023-03-15T02:29:05.398Z,4.90
2023-03-15T02:31:53.858Z,4.90
2023-03-15T02:34:41.545Z,5.00
2023-03-15T02:37:29.180Z,4.90
2023-03-15T02:40:23.213Z,4.90
2023-03-15T02:43:28.536Z,4.90
2023-03-15T02:46:18.279Z,4.90
2023-03-15T02:49:08.758Z,4.90
2023-03-15T02:51:56.320Z,4.80
2023-03-15T02:54:43.930Z,4.80
2023-03-15T02:57:31.391Z,4.80
2023-03-15T03:00:19.302Z,4.90
2023-03-15T03:03:06.766Z,5.00
2023-03-15T03:05:54.240Z,4.90
2023-03-15T03:08:42.038Z,4.90
2023-03-15T03:11:29.659Z,4.90
2023-03-15T03:14:17.119Z,4.90
2023-03-15T03:17:04.753Z,4.90
2023-03-15T03:19:52.661Z,4.80
2023-03-15T03:22:42.493Z,4.80
2023-03-15T03:25:30.059Z,4.70
2023-03-15T03:28:17.569Z,4.70
2023-03-15T03:31:05.408Z,4.70
2023-03-15T03:33:53.796Z,4.70
2023-03-15T03:36:42.941Z,4.70
2023-03-15T03:39:30.931Z,4.60
2023-03-15T03:42:18.516Z,4.60
2023-03-15T03:45:07.558Z,4.60
2023-03-15T03:47:54.960Z,4.50
2023-03-15T03:50:42.454Z,4.50
2023-03-15T03:53:29.986Z,4.50
2023-03-15T03:56:17.475Z,4.40
2023-03-15T03:59:04.958Z,4.40
2023-03-15T04:01:52.505Z,4.30
2023-03-15T04:04:41.775Z,4.30
2023-03-15T04:07:29.303Z,4.30
2023-03-15T04:10:17.137Z,4.40
2023-03-15T04:13:04.823Z,4.40
2023-03-15T04:15:57.719Z,4.40
2023-03-15T04:18:45.782Z,4.40
2023-03-15T04:21:34.167Z,4.50
2023-03-15T04:24:21.593Z,4.60
2023-03-15T04:27:09.181Z,4.70
2023-03-15T04:29:57.116Z,4.70
2023-03-15T04:32:44.628Z,4.80
2023-03-15T04:35:36.531Z,4.80
2023-03-15T04:38:27.167Z,4.80
2023-03-15T04:41:18.716Z,4.90
2023-03-15T04:44:06.650Z,4.90
2023-03-15T04:46:55.979Z,4.90
2023-03-15T04:49:43.536Z,5.00
2023-03-15T04:52:30.958Z,5.00
2023-03-15T04:55:18.640Z,4.90
2023-03-15T04:58:06.127Z,4.90
2023-03-15T05:00:54.262Z,5.00
2023-03-15T05:03:41.982Z,5.00
2023-03-15T05:06:29.972Z,5.00
2023-03-15T05:09:19.510Z,5.00
2023-03-15T05:12:08.141Z,5.00
2023-03-15T05:14:55.694Z,5.00
2023-03-15T05:17:46.276Z,5.00
2023-03-15T05:20:33.766Z,5.10
2023-03-15T05:23:22.488Z,5.10
2023-03-15T05:26:10.017Z,5.10
2023-03-15T05:28:57.581Z,5.10
2023-03-15T05:31:45.069Z,5.00
2023-03-15T05:34:32.772Z,5.00
2023-03-15T05:37:22.607Z,5.00
2023-03-15T05:40:11.812Z,5.00
2023-03-15T05:42:59.911Z,5.10
2023-03-15T05:45:48.770Z,5.10
2023-03-15T05:48:36.416Z,5.10
2023-03-15T05:51:23.860Z,5.00
2023-03-15T05:54:11.335Z,5.00
2023-03-15T05:56:58.855Z,5.00
2023-03-15T05:59:46.274Z,5.00
2023-03-15T06:02:33.822Z,4.80
2023-03-15T06:05:21.296Z,4.60
2023-03-15T06:08:09.172Z,4.40
2023-03-15T06:10:56.696Z,4.20
2023-03-15T06:13:44.117Z,4.00
2023-03-15T06:16:31.922Z,3.80
2023-03-15T06:19:20.113Z,3.50
2023-03-15T06:22:07.692Z,3.40
2023-03-15T06:24:55.240Z,3.30
2023-03-15T06:27:42.746Z,3.20
2023-03-15T06:30:30.936Z,3.20
2023-03-15T06:33:18.412Z,3.20
2023-03-15T06:36:06.854Z,3.10
2023-03-15T06:38:57.707Z,3.10
2023-03-15T06:41:45.193Z,3.10
2023-03-15T06:44:32.922Z,3.10
2023-03-15T06:47:20.357Z,3.10
2023-03-15T06:50:09.167Z,3.00
2023-03-15T06:52:57.851Z,3.00
2023-03-15T06:55:46.746Z,2.80
2023-03-15T06:58:34.218Z,2.70
2023-03-15T07:01:21.754Z,2.60
2023-03-15T07:04:09.863Z,2.50
2023-03-15T07:06:57.495Z,2.40
2023-03-15T07:09:45.108Z,2.20
2023-03-15T07:12:33.011Z,2.10
2023-03-15T07:15:20.733Z,2.10
2023-03-15T07:18:08.786Z,2.10
2023-03-15T07:20:58.819Z,2.10
2023-03-15T07:23:46.372Z,2.10
2023-03-15T07:26:34.013Z,2.10
2023-03-15T07:29:22.007Z,1.90
2023-03-15T07:32:09.888Z,1.80
2023-03-15T07:35:00.669Z,1.70
2023-03-15T07:37:48.393Z,1.70
2023-03-15T07:40:35.996Z,1.70
2023-03-15T07:43:24.319Z,1.70
2023-03-15T07:46:11.984Z,1.70
2023-03-15T07:48:59.610Z,1.60
2023-03-15T07:51:47.322Z,1.60
2023-03-15T07:54:34.885Z,1.60
2023-03-15T07:57:22.488Z,1.60
2023-03-15T08:00:13.650Z,1.70
2023-03-15T08:03:01.282Z,1.80
2023-03-15T08:05:48.806Z,2.00
2023-03-15T08:08:36.528Z,2.10
2023-03-15T08:11:24.137Z,2.20
2023-03-15T08:14:11.744Z,2.50
2023-03-15T08:16:59.340Z,2.70
2023-03-15T08:19:46.841Z,2.90
2023-03-15T08:22:34.415Z,3.00
2023-03-15T08:25:24.539Z,3.10
2023-03-15T08:28:12.746Z,3.20
2023-03-15T08:31:00.663Z,3.30
2023-03-15T08:33:48.777Z,3.40
2023-03-15T08:36:36.373Z,3.50
2023-03-15T08:39:24.229Z,3.60
2023-03-15T08:42:11.938Z,3.70
2023-03-15T08:45:02.194Z,3.80
2023-03-15T08:47:50.578Z,3.90
2023-03-15T08:50:38.202Z,3.90
2023-03-15T08:53:25.761Z,3.90
2023-03-15T08:56:13.802Z,3.70
2023-03-15T08:59:01.422Z,3.70
2023-03-15T09:01:50.866Z,3.80
2023-03-15T09:04:38.494Z,3.90
2023-03-15T09:07:26.369Z,4.10
2023-03-15T09:10:16.668Z,4.40
2023-03-15T09:13:04.244Z,4.50
2023-03-15T09:15:56.354Z,4.50
2023-03-15T09:18:44.873Z,4.50
2023-03-15T09:21:32.396Z,4.60
2023-03-15T09:24:20.019Z,4.80
2023-03-15T09:27:07.575Z,4.90
2023-03-15T09:29:55.159Z,4.90
2023-03-15T09:32:44.309Z,4.80
2023-03-15T09:35:32.291Z,4.80
2023-03-15T09:38:20.404Z,5.00
2023-03-15T09:41:39.850Z,5.30
2023-03-15T09:44:48.537Z,5.60
2023-03-15T09:48:05.508Z,5.40
2023-03-15T09:51:38.267Z,5.40
2023-03-15T09:54:39.172Z,5.50
2023-03-15T09:57:41.643Z,5.60
2023-03-15T10:00:53.518Z,5.60
2023-03-15T10:03:50.494Z,5.70
2023-03-15T10:06:46.283Z,5.80
2023-03-15T10:09:35.092Z,6.00
2023-03-15T10:12:42.849Z,6.20
2023-03-15T10:15:48.516Z,6.40
2023-03-15T10:19:02.562Z,6.50
2023-03-15T10:22:22.350Z,6.50
2023-03-15T10:25:30.187Z,6.60
2023-03-15T10:28:36.260Z,6.70
2023-03-15T10:31:44.229Z,6.90
2023-03-15T10:34:32.481Z,7.10
2023-03-15T10:37:25.573Z,7.10
2023-03-15T10:40:18.205Z,7.30
2023-03-15T10:43:25.213Z,7.10
2023-03-15T10:46:23.291Z,7.20
2023-03-15T10:49:16.538Z,7.00
2023-03-15T10:52:06.017Z,6.80
2023-03-15T10:54:58.701Z,6.60
2023-03-15T10:58:02.413Z,6.50
2023-03-15T11:01:01.170Z,6.70
2023-03-15T11:04:15.003Z,7.00
2023-03-15T11:07:04.341Z,7.20
2023-03-15T11:09:59.203Z,7.30
2023-03-15T11:12:46.803Z,7.50
2023-03-15T11:15:34.392Z,7.60
2023-03-15T11:19:01.640Z,7.60
2023-03-15T11:21:51.696Z,7.60
2023-03-15T11:24:40.476Z,7.30
2023-03-15T11:27:31.956Z,7.10
2023-03-15T11:30:30.245Z,7.30
2023-03-15T11:33:56.812Z,7.40
2023-03-15T11:37:05.417Z,7.40
2023-03-15T11:40:12.145Z,7.60
2023-03-15T11:43:08.899Z,7.90
2023-03-15T11:46:27.658Z,8.30
2023-03-15T11:49:31.535Z,8.40
2023-03-15T11:52:24.512Z,8.40
2023-03-15T11:55:25.703Z,8.10
2023-03-15T11:58:35.897Z,7.50
2023-03-15T12:01:27.134Z,7.20
2023-03-15T12:04:32.645Z,7.40
2023-03-15T12:07:20.154Z,7.10
2023-03-15T12:10:32.836Z,7.00
2023-03-15T12:13:32.335Z,7.00
2023-03-15T12:16:28.269Z,6.80
2023-03-15T12:19:24.705Z,6.90
2023-03-15T12:22:18.182Z,7.00
2023-03-15T12:25:45.373Z,7.50
2023-03-15T12:29:16.189Z,7.70
2023-03-15T12:32:03.727Z,7.70
2023-03-15T12:34:56.594Z,7.70
2023-03-15T12:37:53.894Z,7.70
2023-03-15T12:40:55.490Z,7.60
2023-03-15T12:43:44.278Z,7.70
2023-03-15T12:46:41.499Z,7.90
2023-03-15T12:49:35.195Z,7.90
2023-03-15T12:52:23.475Z,7.80
2023-03-15T12:55:16.060Z,7.60
2023-03-15T12:58:04.895Z,7.70
2023-03-15T13:00:54.861Z,7.70
2023-03-15T13:03:43.982Z,7.70
2023-03-15T13:06:44.455Z,7.80
2023-03-15T13:10:39.260Z,7.90
2023-03-15T13:13:51.765Z,7.90
2023-03-15T13:16:44.664Z,8.00
2023-03-15T13:19:50.117Z,8.10
2023-03-15T13:23:31.378Z,8.20
2023-03-15T13:26:46.901Z,7.90
2023-03-15T13:29:34.956Z,7.90
2023-03-15T13:32:25.693Z,8.20
2023-03-15T13:35:14.627Z,8.30
2023-03-15T13:38:43.708Z,8.50
2023-03-15T13:41:32.410Z,8.50
2023-03-15T13:44:23.909Z,8.50
2023-03-15T13:47:23.978Z,8.60
2023-03-15T13:50:21.226Z,8.50
2023-03-15T13:53:15.803Z,8.60
2023-03-15T13:56:09.828Z,8.50
2023-03-15T13:58:59.248Z,8.40
2023-03-15T14:01:49.632Z,8.40
2023-03-15T14:04:38.454Z,8.30
2023-03-15T14:07:48.650Z,8.20
2023-03-15T14:10:40.848Z,8.00
2023-03-15T14:13:47.130Z,7.90
2023-03-15T14:17:01.144Z,7.70
2023-03-15T14:20:05.848Z,7.80
2023-03-15T14:22:58.018Z,8.10
2023-03-15T14:26:01.368Z,8.40
2023-03-15T14:29:18.345Z,8.80
2023-03-15T14:32:32.746Z,9.00
2023-03-15T14:35:30.339Z,9.20
2023-03-15T14:38:27.167Z,9.30
2023-03-15T14:41:33.485Z,9.30
2023-03-15T14:44:21.346Z,9.20
2023-03-15T14:47:17.239Z,9.10
2023-03-15T14:50:13.044Z,9.10
2023-03-15T14:53:00.954Z,9.00
2023-03-15T14:55:48.640Z,8.70
2023-03-15T14:58:36.504Z,8.60
2023-03-15T15:01:27.656Z,8.50
2023-03-15T15:04:15.932Z,8.30
2023-03-15T15:07:03.712Z,8.20
2023-03-15T15:09:52.078Z,8.30
2023-03-15T15:12:39.630Z,8.30
2023-03-15T15:15:27.150Z,8.30
2023-03-15T15:18:15.156Z,8.20
2023-03-15T15:21:13.932Z,8.00
2023-03-15T15:24:05.098Z,8.00
2023-03-15T15:26:53.241Z,7.80
2023-03-15T15:29:40.868Z,7.80
2023-03-15T15:32:28.455Z,7.60
2023-03-15T15:35:19.649Z,7.40
2023-03-15T15:38:13.898Z,7.40
2023-03-15T15:41:01.537Z,7.30
2023-03-15T15:43:49.101Z,7.30
2023-03-15T15:46:36.757Z,7.20
2023-03-15T15:49:24.343Z,7.20
2023-03-15T15:52:15.109Z,7.10
2023-03-15T15:55:02.792Z,7.10
2023-03-15T15:57:52.082Z,6.90
2023-03-15T16:00:39.670Z,6.80
2023-03-15T16:03:27.490Z,6.70
2023-03-15T16:06:19.950Z,6.60
2023-03-15T16:09:13.105Z,6.50
2023-03-15T16:12:00.858Z,6.40
2023-03-15T16:14:48.476Z,6.30
2023-03-15T16:17:35.987Z,6.30
2023-03-15T16:20:23.486Z,6.20
2023-03-15T16:23:22.896Z,6.20
2023-03-15T16:26:16.551Z,6.30
2023-03-15T16:29:21.374Z,6.30
2023-03-15T16:32:19.344Z,6.20
2023-03-15T16:35:15.916Z,6.10
2023-03-15T16:38:07.024Z,6.10
2023-03-15T16:40:54.693Z,5.90
2023-03-15T16:43:42.814Z,5.80
2023-03-15T16:46:30.421Z,5.90
2023-03-15T16:49:18.032Z,5.80
2023-03-15T16:52:08.421Z,5.70
2023-03-15T16:54:56.613Z,5.70
2023-03-15T16:57:44.340Z,5.70
2023-03-15T17:00:32.321Z,5.60
2023-03-15T17:03:19.872Z,5.60
2023-03-15T17:06:23.300Z,5.50
2023-03-15T17:09:19.647Z,5.60
2023-03-15T17:12:14.278Z,5.60
2023-03-15T17:15:02.197Z,5.60
2023-03-15T17:17:50.299Z,5.60
2023-03-15T17:20:38.079Z,5.50
2023-03-15T17:23:25.908Z,5.40
2023-03-15T17:26:18.144Z,5.20
2023-03-15T17:29:07.040Z,5.10
2023-03-15T17:31:54.709Z,5.00
2023-03-15T17:34:47.227Z,4.90
2023-03-15T17:37:38.176Z,4.80
2023-03-15T17:40:32.845Z,4.80
2023-03-15T17:43:20.539Z,4.70
2023-03-15T17:46:10.309Z,4.60
2023-03-15T17:49:00.194Z,4.60
2023-03-15T17:51:47.751Z,4.50
2023-03-15T17:54:35.315Z,4.50
2023-03-15T17:57:22.858Z,4.50
2023-03-15T18:00:12.589Z,4.40
2023-03-15T18:03:01.179Z,4.40
2023-03-15T18:05:48.838Z,4.30
2023-03-15T18:08:36.574Z,4.20
2023-03-15T18:11:35.963Z,4.10
2023-03-15T18:14:23.411Z,4.00
2023-03-15T18:17:11.673Z,3.90
2023-03-15T18:19:59.107Z,3.90
2023-03-15T18:22:46.665Z,3.90
2023-03-15T18:25:35.800Z,3.90
2023-03-15T18:28:23.372Z,3.80
2023-03-15T18:31:25.483Z,3.90
2023-03-15T18:34:15.774Z,3.90
2023-03-15T18:37:03.437Z,3.90
2023-03-15T18:39:50.851Z,3.90
2023-03-15T18:42:38.348Z,4.00
2023-03-15T18:45:33.315Z,3.90
2023-03-15T18:48:27.856Z,3.90
2023-03-15T18:51:25.810Z,3.90
2023-03-15T18:54:13.494Z,3.80
2023-03-15T18:57:01.853Z,3.80
2023-03-15T18:59:49.374Z,3.70
2023-03-15T19:02:36.915Z,3.80
2023-03-15T19:05:26.248Z,3.80
2023-03-15T19:08:13.792Z,3.70
2023-03-15T19:11:03.721Z,3.70
2023-03-15T19:13:51.548Z,3.70
2023-03-15T19:16:39.105Z,3.70
2023-03-15T19:19:26.774Z,3.70
2023-03-15T19:22:14.455Z,3.70
2023-03-15T19:25:01.939Z,3.70
2023-03-15T19:27:49.783Z,3.70
2023-03-15T19:30:37.878Z,3.70
2023-03-15T19:33:25.429Z,3.70
2023-03-15T19:36:13.151Z,3.70
2023-03-15T19:39:00.792Z,3.70
2023-03-15T19:41:48.275Z,3.60
2023-03-15T19:44:36.328Z,3.50
2023-03-15T19:47:23.882Z,3.50
2023-03-15T19:50:14.391Z,3.40
2023-03-15T19:53:01.883Z,3.40
2023-03-15T19:55:49.382Z,3.40
2023-03-15T19:58:37.270Z,3.40
2023-03-15T20:01:24.896Z,3.40
2023-03-15T20:04:12.476Z,3.30
2023-03-15T20:07:00.002Z,3.30
2023-03-15T20:09:47.500Z,3.30
2023-03-15T20:12:37.629Z,3.20
2023-03-15T20:15:28.170Z,3.20
2023-03-15T20:18:18.541Z,3.20
2023-03-15T20:21:06.317Z,3.20
2023-03-15T20:23:54.229Z,3.20
2023-03-15T20:26:41.896Z,3.20
2023-03-15T20:29:31.682Z,3.10
2023-03-15T20:32:19.191Z,3.10
2023-03-15T20:35:09.492Z,3.20
2023-03-15T20:37:58.120Z,3.20
2023-03-15T20:40:46.375Z,3.10
2023-03-15T20:43:34.682Z,3.10
2023-03-15T20:46:22.508Z,3.10
2023-03-15T20:49:11.015Z,3.00
2023-03-15T20:51:59.704Z,3.00
2023-03-15T20:54:47.257Z,3.00
2023-03-15T20:57:36.451Z,2.90
2023-03-15T21:00:25.030Z,2.80
2023-03-15T21:03:14.780Z,2.80
2023-03-15T21:06:05.866Z,2.80
2023-03-15T21:08:53.372Z,2.70
2023-03-15T21:11:40.935Z,2.60
2023-03-15T21:14:28.458Z,2.60
2023-03-15T21:17:15.975Z,2.60
2023-03-15T21:20:07.274Z,2.50
2023-03-15T21:22:54.739Z,2.40
2023-03-15T21:25:42.197Z,2.30
2023-03-15T21:28:31.337Z,2.20
2023-03-15T21:31:19.139Z,2.10
2023-03-15T21:34:06.591Z,2.10
2023-03-15T21:36:54.152Z,2.10
2023-03-15T21:39:41.650Z,2.00
2023-03-15T21:42:29.174Z,1.90
2023-03-15T21:45:16.876Z,1.70
2023-03-15T21:48:04.504Z,1.60
2023-03-15T21:50:55.326Z,1.50
2023-03-15T21:53:43.686Z,1.40
2023-03-15T21:56:31.836Z,1.30
2023-03-15T21:59:28.194Z,1.30
2023-03-15T22:02:16.779Z,1.20
2023-03-15T22:05:06.219Z,1.20
2023-03-15T22:07:53.907Z,1.20
2023-03-15T22:10:41.396Z,1.20
2023-03-15T22:13:30.094Z,1.10
2023-03-15T22:16:17.736Z,1.10
2023-03-15T22:19:05.336Z,1.00
2023-03-15T22:21:52.811Z,1.00
2023-03-15T22:24:41.890Z,0.90
2023-03-15T22:27:29.427Z,0.90
2023-03-15T22:30:18.945Z,0.90
2023-03-15T22:33:07.006Z,0.90
2023-03-15T22:35:58.940Z,1.00
2023-03-15T22:38:50.068Z,0.90
2023-03-15T22:41:38.596Z,1.00
2023-03-15T22:44:26.050Z,1.00
2023-03-15T22:47:13.462Z,1.00
2023-03-15T22:50:01.112Z,1.00
2023-03-15T22:52:51.888Z,0.90
2023-03-15T22:55:39.340Z,0.90
2023-03-15T22:58:27.458Z,0.90
2023-03-15T23:01:15.013Z,0.90
2023-03-15T23:04:02.479Z,0.80
2023-03-15T23:06:50.322Z,0.80
2023-03-15T23:09:37.856Z,0.70
2023-03-15T23:12:35.849Z,0.70
2023-03-15T23:15:24.618Z,0.60
2023-03-15T23:18:14.746Z,0.60
2023-03-15T23:21:10.108Z,0.50
2023-03-15T23:23:57.560Z,0.50
2023-03-15T23:26:45.203Z,0.50
2023-03-15T23:29:47.177Z,0.50
2023-03-15T23:32:42.002Z,0.40
2023-03-15T23:35:29.916Z,0.30
2023-03-15T23:38:17.500Z,0.30
2023-03-15T23:41:05.670Z,0.30
2023-03-15T23:43:53.271Z,0.30
2023-03-15T23:46:41.550Z,0.20
2023-03-15T23:49:29.915Z,0.20
2023-03-15T23:52:18.793Z,0.20
2023-03-15T23:55:06.927Z,0.20
2023-03-15T23:57:54.327Z,0.20
